sensor_id;sensor_type;location;lat;lon;timestamp;P1;durP1;ratioP1;P2;durP2;ratioP2
74519;SDS011;63002;48.134;-1.948;2023-06-10T05:00:33;2.70;;;0.77;;
74519;SDS011;63002;48.134;-1.948;2023-06-10T05:02:59;2.60;;;0.90;;
74519;SDS011;63002;48.134;-1.948;2023-06-10T05:05:25;2.13;;;0.80;;
74519;SDS011;63002;48.134;-1.948;2023-06-10T05:07:50;1.80;;;0.80;;
74519;SDS011;63002;48.134;-1.948;2023-06-10T05:10:16;1.88;;;0.70;;
74519;SDS011;63002;48.134;-1.948;2023-06-10T05:12:42;2.53;;;0.90;;
74519;SDS011;63002;48.134;-1.948;2023-06-10T05:15:07;3.65;;;1.10;;
74519;SDS011;63002;48.134;-1.948;2023-06-10T05:17:34;2.22;;;0.85;;
74519;SDS011;63002;48.134;-1.948;2023-06-10T05:20:03;2.37;;;0.80;;
74519;SDS011;63002;48.134;-1.948;2023-06-10T05:22:29;2.17;;;0.77;;
74519;SDS011;63002;48.134;-1.948;2023-06-10T05:24:54;2.15;;;0.80;;
74519;SDS011;63002;48.134;-1.948;2023-06-10T05:27:20;2.20;;;0.80;;
74519;SDS011;63002;48.134;-1.948;2023-06-10T05:29:47;2.60;;;0.90;;
74519;SDS011;63002;48.134;-1.948;2023-06-10T05:32:13;2.88;;;1.10;;
74519;SDS011;63002;48.134;-1.948;2023-06-10T05:34:39;2.43;;;0.80;;
74519;SDS011;63002;48.134;-1.948;2023-06-10T05:37:04;2.63;;;0.87;;
74519;SDS011;63002;48.134;-1.948;2023-06-10T05:39:30;2.75;;;0.90;;
74519;SDS011;63002;48.134;-1.948;2023-06-10T05:41:57;2.78;;;0.80;;
74519;SDS011;63002;48.134;-1.948;2023-06-10T05:44:24;2.47;;;0.90;;
74519;SDS011;63002;48.134;-1.948;2023-06-10T05:46:50;2.58;;;0.80;;
74519;SDS011;63002;48.134;-1.948;2023-06-10T05:49:16;3.03;;;1.03;;
74519;SDS011;63002;48.134;-1.948;2023-06-10T05:51:42;2.95;;;1.10;;
74519;SDS011;63002;48.134;-1.948;2023-06-10T05:54:07;3.00;;;1.00;;
74519;SDS011;63002;48.134;-1.948;2023-06-10T05:56:33;3.67;;;1.20;;
74519;SDS011;63002;48.134;-1.948;2023-06-10T05:58:59;4.93;;;1.13;;
74519;SDS011;63002;48.134;-1.948;2023-06-10T06:01:24;4.30;;;1.40;;
74519;SDS011;63002;48.134;-1.948;2023-06-10T06:03:50;5.50;;;1.90;;
74519;SDS011;63002;48.134;-1.948;2023-06-10T06:06:16;5.07;;;1.57;;
74519;SDS011;63002;48.134;-1.948;2023-06-10T06:08:42;5.78;;;2.22;;
74519;SDS011;63002;48.134;-1.948;2023-06-10T06:11:07;5.90;;;2.13;;
74519;SDS011;63002;48.134;-1.948;2023-06-10T06:13:33;7.43;;;2.87;;
74519;SDS011;63002;48.134;-1.948;2023-06-10T06:15:59;5.85;;;2.42;;
74519;SDS011;63002;48.134;-1.948;2023-06-10T06:18:24;6.97;;;3.40;;
74519;SDS011;63002;48.134;-1.948;2023-06-10T06:20:50;10.82;;;3.40;;
74519;SDS011;63002;48.134;-1.948;2023-06-10T06:23:16;7.33;;;3.10;;
74519;SDS011;63002;48.134;-1.948;2023-06-10T06:25:42;13.73;;;4.07;;
74519;SDS011;63002;48.134;-1.948;2023-06-10T06:28:07;11.53;;;4.07;;
74519;SDS011;63002;48.134;-1.948;2023-06-10T06:30:35;13.10;;;4.50;;
74519;SDS011;63002;48.134;-1.948;2023-06-10T06:33:01;13.40;;;4.60;;
74519;SDS011;63002;48.134;-1.948;2023-06-10T06:35:27;13.48;;;4.72;;
74519;SDS011;63002;48.134;-1.948;2023-06-10T06:37:55;17.52;;;5.15;;
74519;SDS011;63002;48.134;-1.948;2023-06-10T06:40:21;10.52;;;4.57;;
74519;SDS011;63002;48.134;-1.948;2023-06-10T06:42:47;19.13;;;4.75;;
74519;SDS011;63002;48.134;-1.948;2023-06-10T06:45:15;11.23;;;4.25;;
74519;SDS011;63002;48.134;-1.948;2023-06-10T06:47:42;12.02;;;3.33;;
74519;SDS011;63002;48.134;-1.948;2023-06-10T06:50:09;13.95;;;3.97;;
74519;SDS011;63002;48.134;-1.948;2023-06-10T06:52:35;9.90;;;3.83;;
74519;SDS011;63002;48.134;-1.948;2023-06-10T06:55:02;30.58;;;5.22;;
74519;SDS011;63002;48.134;-1.948;2023-06-10T06:57:29;13.02;;;5.82;;
74519;SDS011;63002;48.134;-1.948;2023-06-10T06:59:55;15.73;;;7.45;;
74519;SDS011;63002;48.134;-1.948;2023-06-10T07:02:21;19.80;;;9.03;;
74519;SDS011;63002;48.134;-1.948;2023-06-10T07:04:50;16.13;;;8.82;;
74519;SDS011;63002;48.134;-1.948;2023-06-10T07:07:16;17.40;;;9.57;;
74519;SDS011;63002;48.134;-1.948;2023-06-10T07:09:42;16.75;;;9.43;;
74519;SDS011;63002;48.134;-1.948;2023-06-10T07:12:08;26.70;;;9.30;;
74519;SDS011;63002;48.134;-1.948;2023-06-10T07:14:34;19.25;;;9.27;;
74519;SDS011;63002;48.134;-1.948;2023-06-10T07:17:00;17.77;;;9.63;;
74519;SDS011;63002;48.134;-1.948;2023-06-10T07:19:26;34.13;;;8.48;;
74519;SDS011;63002;48.134;-1.948;2023-06-10T07:21:52;15.57;;;7.05;;
74519;SDS011;63002;48.134;-1.948;2023-06-10T07:24:17;12.75;;;7.05;;
74519;SDS011;63002;48.134;-1.948;2023-06-10T07:26:45;20.27;;;8.53;;
74519;SDS011;63002;48.134;-1.948;2023-06-10T07:29:11;17.83;;;8.40;;
74519;SDS011;63002;48.134;-1.948;2023-06-10T07:31:37;16.80;;;7.00;;
74519;SDS011;63002;48.134;-1.948;2023-06-10T07:34:04;16.65;;;7.80;;
74519;SDS011;63002;48.134;-1.948;2023-06-10T07:36:31;14.45;;;6.97;;
74519;SDS011;63002;48.134;-1.948;2023-06-10T07:38:57;14.50;;;7.00;;
74519;SDS011;63002;48.134;-1.948;2023-06-10T07:41:23;18.42;;;7.28;;
74519;SDS011;63002;48.134;-1.948;2023-06-10T07:43:54;11.70;;;6.63;;
74519;SDS011;63002;48.134;-1.948;2023-06-10T07:46:21;14.47;;;7.03;;
74519;SDS011;63002;48.134;-1.948;2023-06-10T07:48:49;12.38;;;6.35;;
74519;SDS011;63002;48.134;-1.948;2023-06-10T07:51:16;12.32;;;6.97;;
74519;SDS011;63002;48.134;-1.948;2023-06-10T07:53:42;11.82;;;6.78;;
74519;SDS011;63002;48.134;-1.948;2023-06-10T07:56:08;12.18;;;6.40;;
74519;SDS011;63002;48.134;-1.948;2023-06-10T07:58:33;12.80;;;6.80;;
74519;SDS011;63002;48.134;-1.948;2023-06-10T08:00:59;14.50;;;7.57;;
74519;SDS011;63002;48.134;-1.948;2023-06-10T08:03:25;13.93;;;6.97;;
74519;SDS011;63002;48.134;-1.948;2023-06-10T08:05:51;12.25;;;7.03;;
74519;SDS011;63002;48.134;-1.948;2023-06-10T08:08:17;12.50;;;6.77;;
74519;SDS011;63002;48.134;-1.948;2023-06-10T08:10:43;12.90;;;6.93;;
74519;SDS011;63002;48.134;-1.948;2023-06-10T08:13:09;11.70;;;6.68;;
74519;SDS011;63002;48.134;-1.948;2023-06-10T08:15:35;12.48;;;6.97;;
74519;SDS011;63002;48.134;-1.948;2023-06-10T08:18:02;10.77;;;6.40;;
74519;SDS011;63002;48.134;-1.948;2023-06-10T08:20:27;11.73;;;6.03;;
74519;SDS011;63002;48.134;-1.948;2023-06-10T08:22:53;11.57;;;6.50;;
74519;SDS011;63002;48.134;-1.948;2023-06-10T08:25:19;10.40;;;5.97;;
74519;SDS011;63002;48.134;-1.948;2023-06-10T08:27:47;11.00;;;5.88;;
74519;SDS011;63002;48.134;-1.948;2023-06-10T08:30:12;14.00;;;6.63;;
74519;SDS011;63002;48.134;-1.948;2023-06-10T08:32:39;13.55;;;7.47;;
74519;SDS011;63002;48.134;-1.948;2023-06-10T08:35:05;14.20;;;7.68;;
74519;SDS011;63002;48.134;-1.948;2023-06-10T08:37:31;14.82;;;7.07;;
74519;SDS011;63002;48.134;-1.948;2023-06-10T08:39:56;12.07;;;6.63;;
74519;SDS011;63002;48.134;-1.948;2023-06-10T08:45:01;12.95;;;6.82;;
74519;SDS011;63002;48.134;-1.948;2023-06-10T08:47:28;13.00;;;6.50;;
74519;SDS011;63002;48.134;-1.948;2023-06-10T08:50:02;13.85;;;7.22;;
74519;SDS011;63002;48.134;-1.948;2023-06-10T08:52:29;14.07;;;6.60;;
74519;SDS011;63002;48.134;-1.948;2023-06-10T08:55:09;15.00;;;6.88;;
74519;SDS011;63002;48.134;-1.948;2023-06-10T08:57:39;14.38;;;8.18;;
74519;SDS011;63002;48.134;-1.948;2023-06-10T09:00:07;14.25;;;8.15;;
74519;SDS011;63002;48.134;-1.948;2023-06-10T09:02:33;14.90;;;8.15;;
74519;SDS011;63002;48.134;-1.948;2023-06-10T09:05:00;13.13;;;7.55;;
74519;SDS011;63002;48.134;-1.948;2023-06-10T09:07:27;14.85;;;7.85;;
74519;SDS011;63002;48.134;-1.948;2023-06-10T09:09:56;13.23;;;7.38;;
74519;SDS011;63002;48.134;-1.948;2023-06-10T09:12:24;14.10;;;7.60;;
74519;SDS011;63002;48.134;-1.948;2023-06-10T09:14:50;15.60;;;8.30;;
74519;SDS011;63002;48.134;-1.948;2023-06-10T09:17:16;15.63;;;7.40;;
74519;SDS011;63002;48.134;-1.948;2023-06-10T09:19:42;19.45;;;7.82;;
74519;SDS011;63002;48.134;-1.948;2023-06-10T09:22:09;17.27;;;8.45;;
74519;SDS011;63002;48.134;-1.948;2023-06-10T09:24:35;15.70;;;6.75;;
74519;SDS011;63002;48.134;-1.948;2023-06-10T09:27:04;14.43;;;7.10;;
74519;SDS011;63002;48.134;-1.948;2023-06-10T09:30:16;12.52;;;7.07;;
74519;SDS011;63002;48.134;-1.948;2023-06-10T09:32:23;17.50;;;7.10;;
74519;SDS011;63002;48.134;-1.948;2023-06-10T09:34:49;11.63;;;6.85;;
74519;SDS011;63002;48.134;-1.948;2023-06-10T09:37:21;16.10;;;7.60;;
74519;SDS011;63002;48.134;-1.948;2023-06-10T09:40:04;16.13;;;8.63;;
74519;SDS011;63002;48.134;-1.948;2023-06-10T09:42:35;12.18;;;7.15;;
74519;SDS011;63002;48.134;-1.948;2023-06-10T09:45:02;16.55;;;7.80;;
74519;SDS011;63002;48.134;-1.948;2023-06-10T09:47:29;16.25;;;7.82;;
74519;SDS011;63002;48.134;-1.948;2023-06-10T09:49:55;13.43;;;6.43;;
74519;SDS011;63002;48.134;-1.948;2023-06-10T09:52:23;11.52;;;6.50;;
74519;SDS011;63002;48.134;-1.948;2023-06-10T09:54:53;12.75;;;6.30;;
74519;SDS011;63002;48.134;-1.948;2023-06-10T09:57:23;11.63;;;6.50;;
74519;SDS011;63002;48.134;-1.948;2023-06-10T09:59:52;13.65;;;5.80;;
74519;SDS011;63002;48.134;-1.948;2023-06-10T10:02:19;10.35;;;5.93;;
74519;SDS011;63002;48.134;-1.948;2023-06-10T10:04:45;14.75;;;7.53;;
74519;SDS011;63002;48.134;-1.948;2023-06-10T10:07:11;16.27;;;7.27;;
74519;SDS011;63002;48.134;-1.948;2023-06-10T10:09:38;14.02;;;7.43;;
74519;SDS011;63002;48.134;-1.948;2023-06-10T10:12:06;18.35;;;7.70;;
74519;SDS011;63002;48.134;-1.948;2023-06-10T10:14:37;15.00;;;8.70;;
74519;SDS011;63002;48.134;-1.948;2023-06-10T10:17:04;13.35;;;7.45;;
74519;SDS011;63002;48.134;-1.948;2023-06-10T10:19:35;13.45;;;8.40;;
74519;SDS011;63002;48.134;-1.948;2023-06-10T10:22:07;13.75;;;7.72;;
74519;SDS011;63002;48.134;-1.948;2023-06-10T10:24:36;12.63;;;7.63;;
74519;SDS011;63002;48.134;-1.948;2023-06-10T10:27:07;16.48;;;7.68;;
74519;SDS011;63002;48.134;-1.948;2023-06-10T10:29:58;15.02;;;8.85;;
74519;SDS011;63002;48.134;-1.948;2023-06-10T10:32:35;12.90;;;8.95;;
74519;SDS011;63002;48.134;-1.948;2023-06-10T10:35:08;14.25;;;7.60;;
74519;SDS011;63002;48.134;-1.948;2023-06-10T10:37:37;10.73;;;5.47;;
74519;SDS011;63002;48.134;-1.948;2023-06-10T10:40:04;11.32;;;6.10;;
74519;SDS011;63002;48.134;-1.948;2023-06-10T10:42:32;16.17;;;6.07;;
74519;SDS011;63002;48.134;-1.948;2023-06-10T10:44:59;14.82;;;7.25;;
74519;SDS011;63002;48.134;-1.948;2023-06-10T10:47:27;16.02;;;8.68;;
74519;SDS011;63002;48.134;-1.948;2023-06-10T10:49:55;15.85;;;9.55;;
74519;SDS011;63002;48.134;-1.948;2023-06-10T10:52:25;16.15;;;8.65;;
74519;SDS011;63002;48.134;-1.948;2023-06-10T10:55:06;12.73;;;7.50;;
74519;SDS011;63002;48.134;-1.948;2023-06-10T10:57:38;12.52;;;7.60;;
74519;SDS011;63002;48.134;-1.948;2023-06-10T11:00:04;15.95;;;8.05;;
74519;SDS011;63002;48.134;-1.948;2023-06-10T11:04:56;13.07;;;7.80;;
74519;SDS011;63002;48.134;-1.948;2023-06-10T11:07:24;11.27;;;7.43;;
74519;SDS011;63002;48.134;-1.948;2023-06-10T11:15:13;11.85;;;7.00;;
74519;SDS011;63002;48.134;-1.948;2023-06-10T11:33:46;59.00;;;10.25;;
74519;SDS011;63002;48.134;-1.948;2023-06-10T11:36:13;84.22;;;10.70;;
74519;SDS011;63002;48.134;-1.948;2023-06-10T11:38:40;117.78;;;14.90;;
74519;SDS011;63002;48.134;-1.948;2023-06-10T11:41:06;60.75;;;11.63;;
74519;SDS011;63002;48.134;-1.948;2023-06-10T11:43:32;64.53;;;10.32;;
74519;SDS011;63002;48.134;-1.948;2023-06-10T11:45:59;46.97;;;9.43;;
74519;SDS011;63002;48.134;-1.948;2023-06-10T11:48:25;26.57;;;11.07;;
74519;SDS011;63002;48.134;-1.948;2023-06-10T11:50:53;27.40;;;9.85;;
74519;SDS011;63002;48.134;-1.948;2023-06-10T11:53:19;17.20;;;9.73;;
74519;SDS011;63002;48.134;-1.948;2023-06-10T11:55:45;16.27;;;8.97;;
74519;SDS011;63002;48.134;-1.948;2023-06-10T11:58:14;25.92;;;9.27;;
74519;SDS011;63002;48.134;-1.948;2023-06-10T12:00:53;20.95;;;8.57;;
74519;SDS011;63002;48.134;-1.948;2023-06-10T12:03:23;24.08;;;8.00;;
74519;SDS011;63002;48.134;-1.948;2023-06-10T12:06:00;17.95;;;8.43;;
74519;SDS011;63002;48.134;-1.948;2023-06-10T12:08:31;23.60;;;8.37;;
74519;SDS011;63002;48.134;-1.948;2023-06-10T12:11:06;14.02;;;8.18;;
74519;SDS011;63002;48.134;-1.948;2023-06-10T12:13:32;12.70;;;7.20;;
74519;SDS011;63002;48.134;-1.948;2023-06-10T12:16:07;16.23;;;7.40;;
74519;SDS011;63002;48.134;-1.948;2023-06-10T12:18:35;15.95;;;6.80;;
74519;SDS011;63002;48.134;-1.948;2023-06-10T12:21:03;17.83;;;7.55;;
74519;SDS011;63002;48.134;-1.948;2023-06-10T12:24:00;15.95;;;7.13;;
74519;SDS011;63002;48.134;-1.948;2023-06-10T12:26:37;12.32;;;6.80;;
74519;SDS011;63002;48.134;-1.948;2023-06-10T12:31:55;12.70;;;6.30;;
74519;SDS011;63002;48.134;-1.948;2023-06-10T12:37:00;15.63;;;6.80;;
74519;SDS011;63002;48.134;-1.948;2023-06-10T12:39:26;24.00;;;9.57;;
74519;SDS011;63002;48.134;-1.948;2023-06-10T12:41:54;16.92;;;7.53;;
74519;SDS011;63002;48.134;-1.948;2023-06-10T12:44:30;12.52;;;6.70;;
74519;SDS011;63002;48.134;-1.948;2023-06-10T12:46:59;11.63;;;6.10;;
74519;SDS011;63002;48.134;-1.948;2023-06-10T12:49:26;11.85;;;6.10;;
74519;SDS011;63002;48.134;-1.948;2023-06-10T12:51:52;10.52;;;4.93;;
74519;SDS011;63002;48.134;-1.948;2023-06-10T12:54:22;11.37;;;5.90;;
74519;SDS011;63002;48.134;-1.948;2023-06-10T12:56:48;12.20;;;6.30;;
74519;SDS011;63002;48.134;-1.948;2023-06-10T12:59:14;10.93;;;6.15;;
74519;SDS011;63002;48.134;-1.948;2023-06-10T13:01:39;10.50;;;6.20;;
74519;SDS011;63002;48.134;-1.948;2023-06-10T13:04:05;10.32;;;6.20;;
74519;SDS011;63002;48.134;-1.948;2023-06-10T13:06:32;10.30;;;5.93;;
74519;SDS011;63002;48.134;-1.948;2023-06-10T13:09:01;10.98;;;5.88;;
74519;SDS011;63002;48.134;-1.948;2023-06-10T13:11:27;10.13;;;5.80;;
74519;SDS011;63002;48.134;-1.948;2023-06-10T13:13:53;10.60;;;4.90;;
74519;SDS011;63002;48.134;-1.948;2023-06-10T13:16:19;16.83;;;5.27;;
74519;SDS011;63002;48.134;-1.948;2023-06-10T13:18:45;10.98;;;5.55;;
74519;SDS011;63002;48.134;-1.948;2023-06-10T13:21:11;9.97;;;4.70;;
74519;SDS011;63002;48.134;-1.948;2023-06-10T13:23:36;10.55;;;4.88;;
74519;SDS011;63002;48.134;-1.948;2023-06-10T13:26:02;10.30;;;4.40;;
74519;SDS011;63002;48.134;-1.948;2023-06-10T13:28:28;8.63;;;4.38;;
74519;SDS011;63002;48.134;-1.948;2023-06-10T13:30:54;8.55;;;4.50;;
74519;SDS011;63002;48.134;-1.948;2023-06-10T13:33:19;9.15;;;4.78;;
74519;SDS011;63002;48.134;-1.948;2023-06-10T13:35:46;8.23;;;4.38;;
74519;SDS011;63002;48.134;-1.948;2023-06-10T13:38:12;7.80;;;3.90;;
74519;SDS011;63002;48.134;-1.948;2023-06-10T13:40:38;7.32;;;4.22;;
74519;SDS011;63002;48.134;-1.948;2023-06-10T13:43:03;9.10;;;4.50;;
74519;SDS011;63002;48.134;-1.948;2023-06-10T13:45:29;10.00;;;4.50;;
74519;SDS011;63002;48.134;-1.948;2023-06-10T13:47:55;9.18;;;4.07;;
74519;SDS011;63002;48.134;-1.948;2023-06-10T13:50:22;7.43;;;4.07;;
74519;SDS011;63002;48.134;-1.948;2023-06-10T13:52:48;8.10;;;4.60;;
74519;SDS011;63002;48.134;-1.948;2023-06-10T13:55:15;8.50;;;4.00;;
74519;SDS011;63002;48.134;-1.948;2023-06-10T13:57:42;7.20;;;3.83;;
74519;SDS011;63002;48.134;-1.948;2023-06-10T14:00:08;7.97;;;4.15;;
74519;SDS011;63002;48.134;-1.948;2023-06-10T14:02:35;7.73;;;4.17;;
74519;SDS011;63002;48.134;-1.948;2023-06-10T14:05:01;7.10;;;3.83;;
74519;SDS011;63002;48.134;-1.948;2023-06-10T14:07:27;10.13;;;4.10;;
74519;SDS011;63002;48.134;-1.948;2023-06-10T14:09:54;9.33;;;4.50;;
74519;SDS011;63002;48.134;-1.948;2023-06-10T14:12:21;9.45;;;4.07;;
74519;SDS011;63002;48.134;-1.948;2023-06-10T14:14:47;7.85;;;4.00;;
74519;SDS011;63002;48.134;-1.948;2023-06-10T14:17:12;7.33;;;3.97;;
74519;SDS011;63002;48.134;-1.948;2023-06-10T14:19:38;8.40;;;4.10;;
74519;SDS011;63002;48.134;-1.948;2023-06-10T14:22:05;8.20;;;4.28;;
74519;SDS011;63002;48.134;-1.948;2023-06-10T14:24:32;7.82;;;4.22;;
74519;SDS011;63002;48.134;-1.948;2023-06-10T14:26:58;10.48;;;4.03;;
74519;SDS011;63002;48.134;-1.948;2023-06-10T14:29:24;14.55;;;4.32;;
74519;SDS011;63002;48.134;-1.948;2023-06-10T14:31:53;17.30;;;4.78;;
74519;SDS011;63002;48.134;-1.948;2023-06-10T14:34:20;16.45;;;6.05;;
74519;SDS011;63002;48.134;-1.948;2023-06-10T14:36:48;12.82;;;5.28;;
74519;SDS011;63002;48.134;-1.948;2023-06-10T14:39:14;17.17;;;5.97;;
74519;SDS011;63002;48.134;-1.948;2023-06-10T14:41:40;12.83;;;6.40;;
74519;SDS011;63002;48.134;-1.948;2023-06-10T14:44:05;11.77;;;6.22;;
74519;SDS011;63002;48.134;-1.948;2023-06-10T14:46:31;13.27;;;6.40;;
74519;SDS011;63002;48.134;-1.948;2023-06-10T14:48:56;12.95;;;7.05;;
74519;SDS011;63002;48.134;-1.948;2023-06-10T14:51:24;10.70;;;6.17;;
74519;SDS011;63002;48.134;-1.948;2023-06-10T14:53:50;10.95;;;6.03;;
74519;SDS011;63002;48.134;-1.948;2023-06-10T14:56:16;10.03;;;6.07;;
74519;SDS011;63002;48.134;-1.948;2023-06-10T14:58:42;10.57;;;6.78;;
74519;SDS011;63002;48.134;-1.948;2023-06-10T15:01:08;9.60;;;6.03;;
74519;SDS011;63002;48.134;-1.948;2023-06-10T15:03:34;10.80;;;5.70;;
74519;SDS011;63002;48.134;-1.948;2023-06-10T15:05:59;10.82;;;5.75;;
74519;SDS011;63002;48.134;-1.948;2023-06-10T15:08:28;9.40;;;5.70;;
74519;SDS011;63002;48.134;-1.948;2023-06-10T15:10:54;9.83;;;5.63;;
74519;SDS011;63002;48.134;-1.948;2023-06-10T15:13:19;9.98;;;5.68;;
74519;SDS011;63002;48.134;-1.948;2023-06-10T15:15:45;13.37;;;6.30;;
74519;SDS011;63002;48.134;-1.948;2023-06-10T15:18:11;13.48;;;5.93;;
74519;SDS011;63002;48.134;-1.948;2023-06-10T15:20:36;12.53;;;5.90;;
74519;SDS011;63002;48.134;-1.948;2023-06-10T15:23:02;10.45;;;5.13;;
74519;SDS011;63002;48.134;-1.948;2023-06-10T15:25:28;10.17;;;5.70;;
74519;SDS011;63002;48.134;-1.948;2023-06-10T15:27:53;9.77;;;5.80;;
74519;SDS011;63002;48.134;-1.948;2023-06-10T15:30:19;10.03;;;5.67;;
74519;SDS011;63002;48.134;-1.948;2023-06-10T15:32:45;9.50;;;5.63;;
74519;SDS011;63002;48.134;-1.948;2023-06-10T15:35:11;9.70;;;5.30;;
74519;SDS011;63002;48.134;-1.948;2023-06-10T15:37:37;10.73;;;5.72;;
74519;SDS011;63002;48.134;-1.948;2023-06-10T15:40:02;9.60;;;5.53;;
74519;SDS011;63002;48.134;-1.948;2023-06-10T15:42:29;8.97;;;5.30;;
74519;SDS011;63002;48.134;-1.948;2023-06-10T15:44:54;13.90;;;5.60;;
74519;SDS011;63002;48.134;-1.948;2023-06-10T15:47:20;15.10;;;5.67;;
74519;SDS011;63002;48.134;-1.948;2023-06-10T15:49:46;10.40;;;5.15;;
74519;SDS011;63002;48.134;-1.948;2023-06-10T15:52:12;7.93;;;4.40;;
74519;SDS011;63002;48.134;-1.948;2023-06-10T15:54:37;10.63;;;5.18;;
74519;SDS011;63002;48.134;-1.948;2023-06-10T15:57:04;11.23;;;4.85;;
74519;SDS011;63002;48.134;-1.948;2023-06-10T15:59:30;9.55;;;4.93;;
74519;SDS011;63002;48.134;-1.948;2023-06-10T16:01:56;9.73;;;4.70;;
74519;SDS011;63002;48.134;-1.948;2023-06-10T16:04:22;9.57;;;5.07;;
74519;SDS011;63002;48.134;-1.948;2023-06-10T16:06:49;9.88;;;5.78;;
74519;SDS011;63002;48.134;-1.948;2023-06-10T16:09:15;10.73;;;5.23;;
74519;SDS011;63002;48.134;-1.948;2023-06-10T16:11:41;14.00;;;5.07;;
74519;SDS011;63002;48.134;-1.948;2023-06-10T16:14:07;8.73;;;5.18;;
74519;SDS011;63002;48.134;-1.948;2023-06-10T16:16:33;9.13;;;5.53;;
74519;SDS011;63002;48.134;-1.948;2023-06-10T16:18:58;9.18;;;5.03;;
74519;SDS011;63002;48.134;-1.948;2023-06-10T16:21:24;8.80;;;4.80;;
74519;SDS011;63002;48.134;-1.948;2023-06-10T16:23:50;8.77;;;5.30;;
74519;SDS011;63002;48.134;-1.948;2023-06-10T16:26:16;8.45;;;4.93;;
74519;SDS011;63002;48.134;-1.948;2023-06-10T16:28:42;11.03;;;4.80;;
74519;SDS011;63002;48.134;-1.948;2023-06-10T16:31:08;11.15;;;5.50;;
74519;SDS011;63002;48.134;-1.948;2023-06-10T16:33:34;19.13;;;5.97;;
74519;SDS011;63002;48.134;-1.948;2023-06-10T16:35:59;12.45;;;5.35;;
74519;SDS011;63002;48.134;-1.948;2023-06-10T16:38:25;13.50;;;5.30;;
74519;SDS011;63002;48.134;-1.948;2023-06-10T16:40:51;11.77;;;5.43;;
74519;SDS011;63002;48.134;-1.948;2023-06-10T16:43:17;9.27;;;4.70;;
74519;SDS011;63002;48.134;-1.948;2023-06-10T16:45:42;9.95;;;5.10;;
74519;SDS011;63002;48.134;-1.948;2023-06-10T16:48:08;8.83;;;4.60;;
74519;SDS011;63002;48.134;-1.948;2023-06-10T16:50:34;9.40;;;5.05;;
74519;SDS011;63002;48.134;-1.948;2023-06-10T16:52:59;17.70;;;6.23;;
74519;SDS011;63002;48.134;-1.948;2023-06-10T16:55:25;12.13;;;5.70;;
74519;SDS011;63002;48.134;-1.948;2023-06-10T16:57:51;11.70;;;5.60;;
74519;SDS011;63002;48.134;-1.948;2023-06-10T17:00:16;10.80;;;5.70;;
74519;SDS011;63002;48.134;-1.948;2023-06-10T17:02:42;10.37;;;5.47;;
74519;SDS011;63002;48.134;-1.948;2023-06-10T17:05:08;10.80;;;5.70;;
74519;SDS011;63002;48.134;-1.948;2023-06-10T17:07:34;10.73;;;6.23;;
74519;SDS011;63002;48.134;-1.948;2023-06-10T17:09:59;11.35;;;5.80;;
74519;SDS011;63002;48.134;-1.948;2023-06-10T17:12:25;13.50;;;6.30;;
74519;SDS011;63002;48.134;-1.948;2023-06-10T17:14:51;9.93;;;5.30;;
74519;SDS011;63002;48.134;-1.948;2023-06-10T17:17:17;10.82;;;5.85;;
74519;SDS011;63002;48.134;-1.948;2023-06-10T17:19:43;12.10;;;5.60;;
74519;SDS011;63002;48.134;-1.948;2023-06-10T17:22:09;12.30;;;5.75;;
74519;SDS011;63002;48.134;-1.948;2023-06-10T17:24:35;11.82;;;6.10;;
74519;SDS011;63002;48.134;-1.948;2023-06-10T17:27:02;12.65;;;5.97;;
74519;SDS011;63002;48.134;-1.948;2023-06-10T17:29:28;12.27;;;6.35;;
74519;SDS011;63002;48.134;-1.948;2023-06-10T17:31:54;12.30;;;6.18;;
74519;SDS011;63002;48.134;-1.948;2023-06-10T17:34:20;11.87;;;6.13;;
74519;SDS011;63002;48.134;-1.948;2023-06-10T17:36:45;15.23;;;6.45;;
74519;SDS011;63002;48.134;-1.948;2023-06-10T17:39:11;11.70;;;6.33;;
74519;SDS011;63002;48.134;-1.948;2023-06-10T17:41:37;11.98;;;5.30;;
74519;SDS011;63002;48.134;-1.948;2023-06-10T17:44:04;10.50;;;6.03;;
74519;SDS011;63002;48.134;-1.948;2023-06-10T17:46:30;9.27;;;5.57;;
74519;SDS011;63002;48.134;-1.948;2023-06-10T17:48:55;9.30;;;5.28;;
74519;SDS011;63002;48.134;-1.948;2023-06-10T17:51:21;9.57;;;5.03;;
74519;SDS011;63002;48.134;-1.948;2023-06-10T17:53:47;10.30;;;5.38;;
74519;SDS011;63002;48.134;-1.948;2023-06-10T17:56:13;9.63;;;5.30;;
74519;SDS011;63002;48.134;-1.948;2023-06-10T17:58:38;10.70;;;6.00;;
74519;SDS011;63002;48.134;-1.948;2023-06-10T18:01:06;11.40;;;5.97;;
74519;SDS011;63002;48.134;-1.948;2023-06-10T18:03:32;11.40;;;5.60;;
74519;SDS011;63002;48.134;-1.948;2023-06-10T18:06:01;9.15;;;4.78;;
74519;SDS011;63002;48.134;-1.948;2023-06-10T18:08:27;10.67;;;5.07;;
74519;SDS011;63002;48.134;-1.948;2023-06-10T18:10:53;10.07;;;4.63;;
74519;SDS011;63002;48.134;-1.948;2023-06-10T18:13:19;10.85;;;5.97;;
74519;SDS011;63002;48.134;-1.948;2023-06-10T18:15:45;10.25;;;5.45;;
74519;SDS011;63002;48.134;-1.948;2023-06-10T18:18:11;11.23;;;5.43;;
74519;SDS011;63002;48.134;-1.948;2023-06-10T18:20:36;10.52;;;5.40;;
74519;SDS011;63002;48.134;-1.948;2023-06-10T18:23:02;15.27;;;6.60;;
74519;SDS011;63002;48.134;-1.948;2023-06-10T18:25:28;11.23;;;5.68;;
74519;SDS011;63002;48.134;-1.948;2023-06-10T18:27:53;11.43;;;5.40;;
74519;SDS011;63002;48.134;-1.948;2023-06-10T18:30:20;10.23;;;5.22;;
74519;SDS011;63002;48.134;-1.948;2023-06-10T18:32:46;14.13;;;5.50;;
74519;SDS011;63002;48.134;-1.948;2023-06-10T18:35:11;9.20;;;5.30;;
74519;SDS011;63002;48.134;-1.948;2023-06-10T18:37:37;11.55;;;5.28;;
74519;SDS011;63002;48.134;-1.948;2023-06-10T18:40:03;8.97;;;4.90;;
74519;SDS011;63002;48.134;-1.948;2023-06-10T18:42:30;10.40;;;4.68;;
74519;SDS011;63002;48.134;-1.948;2023-06-10T18:44:56;8.77;;;4.20;;
74519;SDS011;63002;48.134;-1.948;2023-06-10T18:47:22;12.93;;;4.73;;
74519;SDS011;63002;48.134;-1.948;2023-06-10T18:49:47;9.65;;;4.68;;
74519;SDS011;63002;48.134;-1.948;2023-06-10T18:52:13;8.87;;;4.27;;
74519;SDS011;63002;48.134;-1.948;2023-06-10T18:54:39;9.13;;;4.60;;
74519;SDS011;63002;48.134;-1.948;2023-06-10T18:57:04;9.60;;;4.70;;
74519;SDS011;63002;48.134;-1.948;2023-06-10T18:59:31;8.35;;;4.07;;
74519;SDS011;63002;48.134;-1.948;2023-06-10T19:01:57;9.55;;;4.57;;
74519;SDS011;63002;48.134;-1.948;2023-06-10T19:04:22;8.63;;;4.53;;
74519;SDS011;63002;48.134;-1.948;2023-06-10T19:06:48;10.82;;;4.47;;
74519;SDS011;63002;48.134;-1.948;2023-06-10T19:09:14;9.50;;;4.27;;
74519;SDS011;63002;48.134;-1.948;2023-06-10T19:11:39;7.65;;;4.05;;
74519;SDS011;63002;48.134;-1.948;2023-06-10T19:14:05;7.80;;;3.97;;
74519;SDS011;63002;48.134;-1.948;2023-06-10T19:16:32;9.88;;;4.50;;
74519;SDS011;63002;48.134;-1.948;2023-06-10T19:18:57;7.90;;;4.05;;
74519;SDS011;63002;48.134;-1.948;2023-06-10T19:21:23;8.43;;;3.93;;
74519;SDS011;63002;48.134;-1.948;2023-06-10T19:23:49;9.55;;;4.60;;
74519;SDS011;63002;48.134;-1.948;2023-06-10T19:26:15;9.35;;;3.72;;
74519;SDS011;63002;48.134;-1.948;2023-06-10T19:28:41;8.30;;;4.40;;
74519;SDS011;63002;48.134;-1.948;2023-06-10T19:31:07;8.30;;;4.00;;
74519;SDS011;63002;48.134;-1.948;2023-06-10T19:33:32;8.43;;;4.10;;
74519;SDS011;63002;48.134;-1.948;2023-06-10T19:35:58;7.63;;;3.47;;
74519;SDS011;63002;48.134;-1.948;2023-06-10T19:38:24;7.90;;;3.87;;
74519;SDS011;63002;48.134;-1.948;2023-06-10T19:40:50;8.32;;;3.90;;
74519;SDS011;63002;48.134;-1.948;2023-06-10T19:43:15;7.90;;;4.00;;
74519;SDS011;63002;48.134;-1.948;2023-06-10T19:45:41;8.48;;;3.40;;
74519;SDS011;63002;48.134;-1.948;2023-06-10T19:48:07;7.77;;;3.70;;
74519;SDS011;63002;48.134;-1.948;2023-06-10T19:50:32;7.78;;;3.78;;
74519;SDS011;63002;48.134;-1.948;2023-06-10T19:52:59;8.25;;;3.45;;
74519;SDS011;63002;48.134;-1.948;2023-06-10T19:55:25;7.73;;;3.70;;